Time;durP1;ratioP1;P1;durP2;ratioP2;P2;SDS_P1;SDS_P2;PMS_P1;PMS_P2;Temp;Humidity;BMP_temperature;BMP_pressure;BME280_temperature;BME280_humidity;BME280_pressure;Samples;Min_cycle;Max_cycle;Signal;HPM_P1;HPM_P2
2023/01/23 00:02:08;;;;;;;;;;;;;;;28.78;59.68;100807.06;5068952;27;68441;-42
2023/01/23 00:04:38;;;;;;;;;;;;;;;28.82;60.15;100813.69;5084268;27;65277;-41
2023/01/23 00:07:09;;;;;;;;;;;;;;;28.89;61.35;100819.06;5090045;27;71147;-43
2023/01/23 00:09:40;;;;;;;;;;;;;;;28.93;61.67;100823.03;5083872;27;65585;-41
2023/01/23 00:12:10;;;;;;;;;;;;;;;28.98;62.32;100823.22;5087246;27;70056;-41
2023/01/23 00:14:41;;;;;;;;;;;;;;;29.02;62.79;100823.63;5083257;27;65598;-41
2023/01/23 00:17:11;;;;;;;;;;;;;;;29.06;63.44;100816.78;5052699;27;70369;-40
2023/01/23 00:19:42;;;;;;;;;;;;;;;29.10;63.32;100823.47;5078143;27;65612;-40
2023/01/23 00:22:14;;;;;;;;;;;;;;;29.13;63.61;100823.03;5081547;27;71111;-42
2023/01/23 00:24:45;;;;;;;;;;;;;;;29.16;63.66;100825.31;5077985;27;65972;-41
2023/01/23 00:27:15;;;;;;;;;;;;;;;29.17;64.32;100832.41;5079357;27;70678;-43
2023/01/23 00:29:46;;;;;;;;;;;;;;;29.19;64.23;100833.00;5072798;27;65509;-41
2023/01/23 00:32:16;;;;;;;;;;;;;;;29.23;64.68;100836.94;5077684;27;70181;-41
2023/01/23 00:34:48;;;;;;;;;;;;;;;29.26;65.03;100833.81;5050864;27;66301;-41
2023/01/23 00:37:18;;;;;;;;;;;;;;;29.28;64.10;100845.25;5083165;27;70387;-42
2023/01/23 00:39:50;;;;;;;;;;;;;;;29.29;61.70;100844.22;5078259;27;65764;-41
2023/01/23 00:42:20;;;;;;;;;;;;;;;29.32;61.33;100857.28;5080099;27;69823;-42
2023/01/23 00:44:51;;;;;;;;;;;;;;;29.35;60.22;100854.16;5081800;27;66676;-41
2023/01/23 00:47:22;;;;;;;;;;;;;;;29.38;60.42;100861.84;5079949;27;70666;-41
2023/01/23 00:49:57;;;;;;;;;;;;;;;29.42;59.84;100861.44;5087225;27;65647;-43
2023/01/23 00:52:29;;;;;;;;;;;;;;;29.45;60.05;100872.66;5082581;27;69940;-41
2023/01/23 00:54:59;;;;;;;;;;;;;;;29.47;59.66;100869.72;5085325;27;65984;-42
2023/01/23 00:57:30;;;;;;;;;;;;;;;29.50;59.68;100885.53;5080714;27;70310;-42
2023/01/23 01:00:01;;;;;;;;;;;;;;;29.52;59.87;100888.84;5080151;27;65541;-42
2023/01/23 01:02:31;;;;;;;;;;;;;;;29.55;59.77;100900.06;5050183;27;69189;-41
2023/01/23 01:05:02;;;;;;;;;;;;;;;29.58;60.24;100901.53;5078538;27;67226;-41
2023/01/23 01:07:32;;;;;;;;;;;;;;;29.60;60.11;100902.16;5083555;27;69264;-41
2023/01/23 01:10:03;;;;;;;;;;;;;;;29.63;60.42;100901.75;5079668;27;65602;-41
2023/01/23 01:12:34;;;;;;;;;;;;;;;29.66;65.62;100906.75;5082319;27;71530;-41
2023/01/23 01:15:05;;;;;;;;;;;;;;;29.64;66.79;100908.81;5081278;27;66285;-41
2023/01/23 01:17:36;;;;;;;;;;;;;;;29.62;67.11;100913.59;5077711;27;69815;-41
2023/01/23 01:20:07;;;;;;;;;;;;;;;29.60;67.61;100923.78;5079506;27;66326;-42
2023/01/23 01:22:38;;;;;;;;;;;;;;;29.60;67.47;100929.19;5077201;27;70757;-41
2023/01/23 01:25:09;;;;;;;;;;;;;;;29.57;67.64;100924.19;5076968;27;65885;-41
2023/01/23 01:27:39;;;;;;;;;;;;;;;29.57;68.23;100929.59;5029881;28;70185;-41
2023/01/23 01:30:10;;;;;;;;;;;;;;;29.61;68.57;100936.22;5078642;27;66330;-41
2023/01/23 01:32:41;;;;;;;;;;;;;;;29.62;68.62;100937.91;5079941;27;70794;-40
2023/01/23 01:35:14;;;;;;;;;;;;;;;29.61;68.79;100939.78;5060169;27;66149;-40
2023/01/23 01:37:45;;;;;;;;;;;;;;;29.64;68.79;100935.84;5085251;27;70080;-41
2023/01/23 01:40:26;;;;;;;;;;;;;;;29.65;68.58;100945.63;5055080;27;66913;-40
2023/01/23 01:42:59;;;;;;;;;;;;;;;29.67;68.57;100946.25;5085876;27;69301;-38
2023/01/23 01:45:48;;;;;;;;;;;;;;;29.69;68.86;100949.56;5081312;27;67232;-39
2023/01/23 01:48:20;;;;;;;;;;;;;;;29.71;68.58;100957.47;5083341;27;70329;-38
2023/01/23 01:50:52;;;;;;;;;;;;;;;29.72;68.17;100956.44;5054614;28;66826;-38
2023/01/23 01:53:25;;;;;;;;;;;;;;;29.71;67.50;100963.72;5085603;27;69888;-33
2023/01/23 01:55:56;;;;;;;;;;;;;;;29.75;66.50;100956.81;5086084;27;65954;-37
2023/01/23 01:58:27;;;;;;;;;;;;;;;29.79;65.32;100955.38;5067809;27;69996;-36
2023/01/23 02:00:58;;;;;;;;;;;;;;;29.84;64.99;100952.88;5085168;27;65123;-36
2023/01/23 02:03:29;;;;;;;;;;;;;;;29.89;65.16;100951.41;5086226;27;70135;-36
2023/01/23 02:06:00;;;;;;;;;;;;;;;29.93;64.88;100952.66;5088108;27;66627;-37
2023/01/23 02:08:52;;;;;;;;;;;;;;;29.98;64.13;100952.84;5075416;27;69576;-38
2023/01/23 02:11:23;;;;;;;;;;;;;;;30.03;63.71;100950.31;5059306;27;65452;-35
2023/01/23 02:13:55;;;;;;;;;;;;;;;30.06;64.10;100945.31;5069790;27;69984;-37
2023/01/23 02:16:31;;;;;;;;;;;;;;;30.08;65.00;100955.91;5069908;28;65994;-36
2023/01/23 02:19:06;;;;;;;;;;;;;;;30.09;65.87;100949.47;5084848;27;70232;-37
2023/01/23 02:21:38;;;;;;;;;;;;;;;30.11;65.44;100951.97;5063099;28;67257;-36
2023/01/23 02:24:32;;;;;;;;;;;;;;;30.12;65.54;100951.75;5069168;27;70401;-36
2023/01/23 02:27:03;;;;;;;;;;;;;;;30.13;65.22;100950.69;5085397;27;67262;-36
2023/01/23 02:29:44;;;;;;;;;;;;;;;30.16;65.48;100950.28;5082351;27;70802;-36
2023/01/23 02:32:15;;;;;;;;;;;;;;;30.20;65.20;100953.38;5069474;27;66580;-35
2023/01/23 02:34:47;;;;;;;;;;;;;;;30.21;65.74;100949.63;5054284;27;69397;-36
2023/01/23 02:37:18;;;;;;;;;;;;;;;30.23;65.57;100951.13;5054059;28;66643;-36
2023/01/23 02:39:49;;;;;;;;;;;;;;;29.76;64.64;100868.47;5086122;27;70734;-37
2023/01/23 02:42:22;;;;;;;;;;;;;;;30.32;64.34;100940.88;5072402;28;66075;-35
2023/01/23 02:44:55;;;;;;;;;;;;;;;30.38;63.28;100939.19;5059976;27;70553;-36
2023/01/23 02:47:26;;;;;;;;;;;;;;;30.41;63.29;100941.47;5080154;27;63753;-36
2023/01/23 02:49:58;;;;;;;;;;;;;;;30.45;63.35;100938.13;5089468;27;69093;-37
2023/01/23 02:52:30;;;;;;;;;;;;;;;30.49;62.80;100938.50;5070734;27;65965;-37
2023/01/23 02:55:01;;;;;;;;;;;;;;;30.54;62.99;100940.56;5092110;27;69242;-36
2023/01/23 02:57:31;;;;;;;;;;;;;;;30.57;62.38;100940.97;5067170;27;66344;-36
2023/01/23 03:00:15;;;;;;;;;;;;;;;30.59;62.42;100938.03;5067353;27;69362;-36
2023/01/23 03:02:47;;;;;;;;;;;;;;;30.62;62.33;100938.44;5082374;27;66082;-36
2023/01/23 03:05:18;;;;;;;;;;;;;;;30.66;62.41;100942.34;5063567;27;70213;-37
2023/01/23 03:07:52;;;;;;;;;;;;;;;30.68;62.18;100932.16;5067898;27;65716;-36
2023/01/23 03:10:23;;;;;;;;;;;;;;;30.72;62.23;100936.06;5058250;27;69997;-36
2023/01/23 03:13:00;;;;;;;;;;;;;;;30.73;61.96;100928.81;5054131;28;66369;-35
2023/01/23 03:15:34;;;;;;;;;;;;;;;30.65;62.84;100924.47;5072291;27;69873;-38
2023/01/23 03:18:05;;;;;;;;;;;;;;;30.58;63.80;100931.78;5062927;27;65320;-36
2023/01/23 03:20:39;;;;;;;;;;;;;;;30.54;64.70;100930.56;5042309;27;69841;-36
2023/01/23 03:23:10;;;;;;;;;;;;;;;30.48;64.69;100923.31;5046095;27;66455;-36
2023/01/23 03:25:44;;;;;;;;;;;;;;;30.49;65.53;100924.97;5081640;27;70375;-37
2023/01/23 03:31:03;;;;;;;;;;;;;;;30.49;65.98;100916.84;5067355;27;70034;-37
2023/01/23 03:33:34;;;;;;;;;;;;;;;30.48;66.39;100915.22;5081194;27;65726;-39
2023/01/23 03:36:06;;;;;;;;;;;;;;;30.48;66.47;100917.91;5040550;28;69919;-38
2023/01/23 03:41:23;;;;;;;;;;;;;;;30.49;66.81;100912.25;5087816;27;67093;-40
2023/01/23 03:41:31;;;;;;;;;;;;;;;30.50;66.56;100913.09;5068039;27;68863;-38
2023/01/23 03:44:04;;;;;;;;;;;;;;;30.51;66.21;100901.22;5068215;28;66270;-37
2023/01/23 03:46:35;;;;;;;;;;;;;;;30.49;65.51;100895.19;5051446;27;70499;-36
2023/01/23 03:49:06;;;;;;;;;;;;;;;30.51;65.09;100893.13;5058975;27;66928;-37
2023/01/23 03:51:36;;;;;;;;;;;;;;;30.61;64.86;100888.03;5075286;27;70677;-36
2023/01/23 03:54:07;;;;;;;;;;;;;;;30.68;64.75;100883.41;5079260;27;66110;-36
2023/01/23 03:56:37;;;;;;;;;;;;;;;30.78;63.96;100884.78;5061458;27;70327;-36
2023/01/23 03:59:12;;;;;;;;;;;;;;;30.75;64.56;100883.34;5037190;28;66427;-36
2023/01/23 04:01:43;;;;;;;;;;;;;;;30.72;65.61;100875.66;5080207;27;69898;-35
2023/01/23 04:04:14;;;;;;;;;;;;;;;30.71;65.85;100884.84;5057931;27;64577;-36
2023/01/23 04:06:45;;;;;;;;;;;;;;;30.71;65.60;100882.16;5072588;27;72698;-36
2023/01/23 04:09:16;;;;;;;;;;;;;;;30.72;65.51;100875.66;5079973;27;66380;-36
2023/01/23 04:11:47;;;;;;;;;;;;;;;30.71;65.25;100866.72;5077468;27;69843;-35
2023/01/23 04:14:18;;;;;;;;;;;;;;;30.72;65.43;100871.06;5060126;27;64851;-36
2023/01/23 04:16:48;;;;;;;;;;;;;;;30.72;65.46;100857.53;5077988;27;70103;-37
2023/01/23 04:19:19;;;;;;;;;;;;;;;30.73;65.23;100856.50;5063369;27;66041;-39
2023/01/23 04:21:50;;;;;;;;;;;;;;;30.75;64.24;100850.03;5050357;28;70353;-37
2023/01/23 04:24:21;;;;;;;;;;;;;;;30.75;64.40;100850.03;5075241;27;65724;-36
2023/01/23 04:26:51;;;;;;;;;;;;;;;30.77;64.63;100843.34;5061134;27;68901;-36
2023/01/23 04:29:22;;;;;;;;;;;;;;;30.80;64.02;100839.41;5082461;27;66794;-37
2023/01/23 04:31:53;;;;;;;;;;;;;;;30.88;64.37;100842.66;5060907;27;69184;-36
2023/01/23 04:34:23;;;;;;;;;;;;;;;30.98;64.14;100823.22;5068336;27;66245;-37
2023/01/23 04:36:56;;;;;;;;;;;;;;;31.07;63.38;100811.03;5062496;27;70619;-37
2023/01/23 04:39:26;;;;;;;;;;;;;;;31.14;63.27;100817.19;5077403;27;66477;-37
2023/01/23 04:41:57;;;;;;;;;;;;;;;31.22;62.88;100812.56;5063581;27;69273;-36
2023/01/23 04:44:47;;;;;;;;;;;;;;;31.28;62.50;100806.22;5082421;27;66481;-37
2023/01/23 04:47:37;;;;;;;;;;;;;;;31.33;61.80;100806.38;5077413;27;69338;-36
2023/01/23 04:50:11;;;;;;;;;;;;;;;31.38;61.63;100801.16;5083330;27;65919;-37
2023/01/23 04:52:45;;;;;;;;;;;;;;;31.40;61.69;100788.22;5061945;27;70143;-36
2023/01/23 04:55:16;;;;;;;;;;;;;;;31.45;61.25;100793.75;5062112;28;66093;-36
2023/01/23 04:57:48;;;;;;;;;;;;;;;31.47;61.30;100783.53;5044115;27;69772;-36
2023/01/23 05:00:27;;;;;;;;;;;;;;;31.51;60.85;100773.91;5082372;27;65745;-36
2023/01/23 05:03:01;;;;;;;;;;;;;;;31.52;61.06;100770.13;5069304;27;69855;-36
2023/01/23 05:05:32;;;;;;;;;;;;;;;31.55;60.82;100777.81;5059210;27;66919;-36
2023/01/23 05:08:03;;;;;;;;;;;;;;;31.41;60.95;100754.63;5080348;27;70376;-36
2023/01/23 05:10:34;;;;;;;;;;;;;;;31.32;61.13;100753.25;5057982;27;66971;-38
2023/01/23 05:13:09;;;;;;;;;;;;;;;31.26;61.09;100751.41;5056950;27;70275;-36
2023/01/23 05:15:40;;;;;;;;;;;;;;;31.24;60.98;100753.56;5079033;27;65653;-38
2023/01/23 05:18:11;;;;;;;;;;;;;;;31.20;60.94;100750.44;5075181;27;68893;-37
2023/01/23 05:20:41;;;;;;;;;;;;;;;31.22;61.08;100744.81;5079499;27;65816;-38
2023/01/23 05:23:12;;;;;;;;;;;;;;;31.23;61.02;100738.31;5053268;27;68975;-38
2023/01/23 05:25:49;;;;;;;;;;;;;;;31.24;61.30;100729.16;5049999;27;66487;-35
2023/01/23 05:28:19;;;;;;;;;;;;;;;31.25;61.69;100728.91;5082101;27;71302;-36
2023/01/23 05:30:55;;;;;;;;;;;;;;;31.27;61.55;100720.56;5065113;27;66653;-34
2023/01/23 05:33:34;;;;;;;;;;;;;;;31.28;61.68;100722.22;5065031;27;70069;-37
2023/01/23 05:36:06;;;;;;;;;;;;;;;31.30;62.11;100717.41;5049617;27;65283;-36
2023/01/23 05:38:37;;;;;;;;;;;;;;;31.29;61.96;100699.50;5064161;27;70110;-36
2023/01/23 05:41:08;;;;;;;;;;;;;;;31.10;60.00;100695.97;5056611;27;65681;-38
2023/01/23 05:43:39;;;;;;;;;;;;;;;30.92;57.42;100694.94;5081420;27;70444;-38
2023/01/23 05:46:30;;;;;;;;;;;;;;;30.70;55.84;100686.38;5066506;28;66645;-36
2023/01/23 05:49:01;;;;;;;;;;;;;;;30.53;54.68;100693.38;5059540;28;69777;-39
2023/01/23 05:51:32;;;;;;;;;;;;;;;30.49;54.27;100684.06;5057497;28;65352;-40
2023/01/23 05:54:05;;;;;;;;;;;;;;;30.46;54.34;100674.50;5052091;27;69161;-38
2023/01/23 05:56:35;;;;;;;;;;;;;;;30.37;53.88;100672.28;5080551;27;65471;-38
2023/01/23 05:59:24;;;;;;;;;;;;;;;30.34;52.78;100659.22;5077979;27;70168;-37
2023/01/23 06:02:29;;;;;;;;;;;;;;;30.17;51.13;100651.66;5075651;28;66486;-38
2023/01/23 06:05:20;;;;;;;;;;;;;;;30.12;50.71;100654.19;5083821;27;69277;-43
2023/01/23 06:08:10;;;;;;;;;;;;;;;30.05;50.28;100653.41;5049530;27;65550;-37
2023/01/23 06:10:42;;;;;;;;;;;;;;;29.99;49.19;100657.00;5067999;28;70593;-38
2023/01/23 06:13:13;;;;;;;;;;;;;;;29.96;48.58;100652.03;5068491;27;65886;-38
2023/01/23 06:15:43;;;;;;;;;;;;;;;29.94;48.00;100644.09;5057581;27;70682;-41
2023/01/23 06:18:14;;;;;;;;;;;;;;;29.91;47.32;100635.63;5063807;27;66342;-37
2023/01/23 06:20:45;;;;;;;;;;;;;;;29.88;47.24;100644.19;5058328;27;69923;-38
2023/01/23 06:23:16;;;;;;;;;;;;;;;29.87;46.94;100631.72;5062869;27;66214;-37
2023/01/23 06:25:46;;;;;;;;;;;;;;;29.81;46.18;100622.56;5086432;27;69587;-37
2023/01/23 06:28:18;;;;;;;;;;;;;;;29.79;45.69;100622.81;5077176;27;65954;-39
2023/01/23 06:30:49;;;;;;;;;;;;;;;29.76;45.81;100620.53;5087835;27;69859;-41
2023/01/23 06:33:27;;;;;;;;;;;;;;;29.76;45.08;100615.13;5048537;27;66450;-36
2023/01/23 06:35:59;;;;;;;;;;;;;;;29.71;45.01;100612.25;5079932;27;69190;-37
2023/01/23 06:38:31;;;;;;;;;;;;;;;29.71;44.63;100590.63;5066472;28;65418;-38
2023/01/23 06:41:07;;;;;;;;;;;;;;;29.72;44.80;100592.28;5059486;27;69401;-38
2023/01/23 06:43:41;;;;;;;;;;;;;;;29.73;44.53;100588.53;5057175;27;66497;-37
2023/01/23 06:46:20;;;;;;;;;;;;;;;29.73;43.80;100580.44;5055139;28;70983;-37
2023/01/23 06:48:53;;;;;;;;;;;;;;;29.72;44.04;100572.53;5060309;28;66572;-37
2023/01/23 06:51:24;;;;;;;;;;;;;;;29.74;44.05;100568.56;5066634;27;69546;-38
2023/01/23 06:53:55;;;;;;;;;;;;;;;29.74;43.24;100568.56;5081706;27;66501;-38
2023/01/23 06:56:26;;;;;;;;;;;;;;;29.72;43.57;100569.81;5067212;28;69137;-38
2023/01/23 06:58:57;;;;;;;;;;;;;;;29.75;42.98;100563.97;5057654;28;66526;-39
2023/01/23 07:01:31;;;;;;;;;;;;;;;29.76;43.10;100566.47;5046465;27;70419;-37
2023/01/23 07:04:04;;;;;;;;;;;;;;;29.76;42.52;100550.25;5080718;27;66064;-39
2023/01/23 07:06:36;;;;;;;;;;;;;;;29.74;42.43;100540.72;5080278;27;70119;-37
2023/01/23 07:09:07;;;;;;;;;;;;;;;29.74;42.52;100536.13;5063696;28;66395;-37
2023/01/23 07:11:38;;;;;;;;;;;;;;;29.73;42.03;100542.59;5060847;28;69021;-38
2023/01/23 07:14:09;;;;;;;;;;;;;;;29.74;42.00;100533.41;5055299;27;66535;-38
2023/01/23 07:16:41;;;;;;;;;;;;;;;29.74;41.99;100530.72;5068171;27;70670;-38
2023/01/23 07:19:12;;;;;;;;;;;;;;;29.77;42.31;100524.88;5072381;27;65594;-38
2023/01/23 07:21:44;;;;;;;;;;;;;;;29.81;42.21;100534.19;5070408;27;70541;-37
2023/01/23 07:24:14;;;;;;;;;;;;;;;30.03;43.19;100523.81;5083532;27;66183;-37
2023/01/23 07:26:46;;;;;;;;;;;;;;;30.25;44.10;100523.38;5082638;27;70110;-38
2023/01/23 07:29:16;;;;;;;;;;;;;;;30.44;44.69;100526.94;5063389;27;65420;-37
2023/01/23 07:31:47;;;;;;;;;;;;;;;30.59;45.30;100532.81;5082831;27;69266;-38
2023/01/23 07:34:17;;;;;;;;;;;;;;;30.72;45.63;100521.78;5080383;27;66561;-37
2023/01/23 07:36:48;;;;;;;;;;;;;;;30.84;46.37;100523.75;5077523;27;70725;-40
2023/01/23 07:39:19;;;;;;;;;;;;;;;30.96;46.17;100515.69;5056381;27;66479;-39
2023/01/23 07:41:49;;;;;;;;;;;;;;;30.85;47.79;100488.34;5075522;27;70780;-37
2023/01/23 07:44:21;;;;;;;;;;;;;;;31.12;51.18;100513.16;5080534;27;65331;-34
2023/01/23 07:46:51;;;;;;;;;;;;;;;31.26;53.13;100516.50;5051882;27;69207;-35
2023/01/23 07:49:22;;;;;;;;;;;;;;;31.32;53.71;100515.56;5081451;27;67303;-36
2023/01/23 07:51:52;;;;;;;;;;;;;;;31.53;54.33;100522.34;5082168;27;70390;-35
2023/01/23 07:54:23;;;;;;;;;;;;;;;31.70;53.99;100521.66;5084674;27;67092;-38
2023/01/23 07:56:53;;;;;;;;;;;;;;;31.81;53.50;100523.56;5084851;27;69235;-34
2023/01/23 07:59:24;;;;;;;;;;;;;;;31.92;54.47;100521.94;5058603;27;65263;-35
2023/01/23 08:01:54;;;;;;;;;;;;;;;31.97;55.53;100512.03;5077590;27;70856;-35
2023/01/23 08:04:25;;;;;;;;;;;;;;;32.05;56.59;100505.44;5080704;27;66016;-37
2023/01/23 08:06:55;;;;;;;;;;;;;;;32.10;56.79;100499.31;5080032;28;70115;-35
2023/01/23 08:09:26;;;;;;;;;;;;;;;31.94;56.93;100452.00;5079997;27;66559;-38
2023/01/23 08:11:56;;;;;;;;;;;;;;;32.26;57.18;100509.41;5079946;27;70740;-37
2023/01/23 08:14:27;;;;;;;;;;;;;;;32.32;57.17;100508.47;5081176;28;66688;-35
2023/01/23 08:16:57;;;;;;;;;;;;;;;32.39;57.62;100517.28;5079192;27;70363;-38
2023/01/23 08:19:28;;;;;;;;;;;;;;;32.44;57.06;100506.53;5080379;27;67000;-37
2023/01/23 08:21:58;;;;;;;;;;;;;;;32.51;57.11;100511.03;5071113;27;70778;-37
2023/01/23 08:24:29;;;;;;;;;;;;;;;32.53;57.05;100514.34;5079825;27;65930;-37
2023/01/23 08:27:00;;;;;;;;;;;;;;;32.56;57.18;100508.44;5035114;27;69908;-35
2023/01/23 08:29:30;;;;;;;;;;;;;;;32.54;57.55;100515.97;5080680;27;65455;-38
2023/01/23 08:32:01;;;;;;;;;;;;;;;32.58;57.62;100501.69;5063418;27;69638;-37
2023/01/23 08:34:32;;;;;;;;;;;;;;;32.58;57.37;100514.44;5080763;27;65444;-38
2023/01/23 08:37:02;;;;;;;;;;;;;;;32.63;57.24;100520.00;5082206;27;69384;-35
2023/01/23 08:39:34;;;;;;;;;;;;;;;32.66;57.30;100519.50;5076258;27;65365;-37
2023/01/23 08:42:04;;;;;;;;;;;;;;;32.70;57.35;100526.09;5076614;27;69312;-37
2023/01/23 08:44:35;;;;;;;;;;;;;;;32.74;57.05;100527.28;5082569;27;67471;-36
2023/01/23 08:47:06;;;;;;;;;;;;;;;32.76;56.72;100530.56;5085292;27;69330;-36
2023/01/23 08:49:36;;;;;;;;;;;;;;;32.79;57.10;100530.09;5084092;27;65371;-36
2023/01/23 08:52:07;;;;;;;;;;;;;;;32.79;57.52;100534.69;5086810;27;68943;-39
2023/01/23 08:54:38;;;;;;;;;;;;;;;32.78;58.44;100531.16;5080606;27;65678;-37
2023/01/23 08:57:08;;;;;;;;;;;;;;;32.78;59.26;100533.84;5089408;27;70628;-36
2023/01/23 08:59:41;;;;;;;;;;;;;;;32.78;59.48;100533.84;5093891;27;66286;-36
2023/01/23 09:02:11;;;;;;;;;;;;;;;32.81;60.12;100533.38;5091046;27;70702;-37
2023/01/23 09:04:42;;;;;;;;;;;;;;;32.82;59.93;100535.03;5070065;27;65502;-38
2023/01/23 09:07:13;;;;;;;;;;;;;;;32.84;60.19;100541.03;5085513;27;69381;-37
2023/01/23 09:09:43;;;;;;;;;;;;;;;32.85;60.09;100552.75;5083206;27;66007;-35
2023/01/23 09:12:13;;;;;;;;;;;;;;;32.85;60.05;100545.41;5082348;27;69246;-35
2023/01/23 09:14:45;;;;;;;;;;;;;;;32.85;60.11;100539.16;5053031;28;68093;-36
2023/01/23 09:17:15;;;;;;;;;;;;;;;32.81;60.17;100536.09;5083561;27;70014;-36
2023/01/23 09:19:45;;;;;;;;;;;;;;;32.85;59.12;100540.00;5085969;27;66350;-35
2023/01/23 09:22:16;;;;;;;;;;;;;;;32.80;57.20;100537.16;5089912;27;69881;-36
2023/01/23 09:24:47;;;;;;;;;;;;;;;32.81;56.36;100538.81;5086043;27;66758;-35
2023/01/23 09:27:19;;;;;;;;;;;;;;;32.78;56.61;100544.72;5065776;28;70132;-36
2023/01/23 09:29:49;;;;;;;;;;;;;;;32.74;57.82;100554.44;5055646;27;65905;-35
2023/01/23 09:32:20;;;;;;;;;;;;;;;32.75;58.41;100549.81;5069822;27;69733;-35
2023/01/23 09:34:50;;;;;;;;;;;;;;;32.74;58.95;100559.88;5080580;27;66720;-36
2023/01/23 09:37:21;;;;;;;;;;;;;;;32.76;59.88;100563.16;5059434;27;70370;-38
2023/01/23 09:39:52;;;;;;;;;;;;;;;32.96;59.74;100564.63;5080627;27;65008;-36
2023/01/23 09:42:28;;;;;;;;;;;;;;;33.17;59.15;100563.97;5083360;27;69948;-38
2023/01/23 09:45:04;;;;;;;;;;;;;;;33.30;59.66;100569.13;5080006;27;66133;-42
2023/01/23 09:47:38;;;;;;;;;;;;;;;33.40;59.61;100564.91;5082449;27;70189;-37
2023/01/23 09:50:17;;;;;;;;;;;;;;;33.46;59.30;100564.78;5062305;28;66358;-37
2023/01/23 09:52:53;;;;;;;;;;;;;;;33.53;58.80;100578.25;5080969;27;69738;-38
2023/01/23 09:55:32;;;;;;;;;;;;;;;33.56;58.81;100585.91;5063285;28;65764;-41
2023/01/23 09:58:03;;;;;;;;;;;;;;;33.61;58.72;100586.00;5081871;27;70710;-38
2023/01/23 10:00:35;;;;;;;;;;;;;;;33.62;58.21;100587.63;5036364;27;64675;-38
2023/01/23 10:03:15;;;;;;;;;;;;;;;33.62;58.32;100587.63;5080560;27;69645;-38
2023/01/23 10:05:46;;;;;;;;;;;;;;;33.64;58.11;100601.81;5081263;27;66163;-37
2023/01/23 10:08:26;;;;;;;;;;;;;;;33.65;58.03;100598.03;5079271;27;69759;-38
2023/01/23 10:11:00;;;;;;;;;;;;;;;33.66;57.94;100599.69;5064860;27;65701;-37
2023/01/23 10:13:47;;;;;;;;;;;;;;;33.66;57.91;100602.41;5079448;27;69852;-36
2023/01/23 10:16:24;;;;;;;;;;;;;;;33.66;57.88;100598.88;5062788;28;66366;-38
2023/01/23 10:18:58;;;;;;;;;;;;;;;33.61;57.32;100602.31;5075868;27;70047;-36
2023/01/23 10:21:44;;;;;;;;;;;;;;;33.21;58.70;100597.78;5079437;27;66688;-41
2023/01/23 10:24:39;;;;;;;;;;;;;;;33.03;60.19;100595.22;5056324;27;69341;-35
2023/01/23 10:27:21;;;;;;;;;;;;;;;32.90;60.32;100602.56;5063890;27;66659;-37
2023/01/23 10:29:56;;;;;;;;;;;;;;;32.87;60.61;100608.47;5081958;27;70362;-36
2023/01/23 10:32:28;;;;;;;;;;;;;;;32.82;60.56;100610.25;5079799;27;65683;-37
2023/01/23 10:35:04;;;;;;;;;;;;;;;32.79;60.77;100608.88;5079211;27;70575;-36
2023/01/23 10:37:35;;;;;;;;;;;;;;;32.79;61.02;100617.03;5079232;27;66629;-38
2023/01/23 10:40:16;;;;;;;;;;;;;;;32.74;61.08;100614.19;5080695;27;70087;-39
2023/01/23 10:42:47;;;;;;;;;;;;;;;32.74;61.39;100624.22;5080535;27;66002;-38
2023/01/23 10:45:21;;;;;;;;;;;;;;;32.73;61.72;100620.66;5065757;27;70269;-41
2023/01/23 10:47:52;;;;;;;;;;;;;;;32.74;61.74;100621.53;5044602;27;66288;-36
2023/01/23 10:50:33;;;;;;;;;;;;;;;32.77;61.75;100621.84;5081441;27;69072;-37
2023/01/23 10:53:06;;;;;;;;;;;;;;;32.75;62.30;100625.88;5077146;27;66633;-37
2023/01/23 10:55:44;;;;;;;;;;;;;;;32.79;61.35;100622.44;5059782;28;69826;-37
2023/01/23 10:58:37;;;;;;;;;;;;;;;32.74;61.25;100622.34;5077295;27;66342;-36
2023/01/23 11:01:24;;;;;;;;;;;;;;;32.67;58.75;100625.16;5063830;27;69962;-38
2023/01/23 11:03:55;;;;;;;;;;;;;;;32.61;56.31;100636.16;5075468;27;67063;-36
2023/01/23 11:06:27;;;;;;;;;;;;;;;32.61;58.14;100641.59;5079645;27;70654;-36
2023/01/23 11:09:03;;;;;;;;;;;;;;;32.57;59.35;100640.41;5080281;27;66542;-37
2023/01/23 11:11:35;;;;;;;;;;;;;;;32.53;59.94;100645.50;5081107;27;70858;-37
2023/01/23 11:14:13;;;;;;;;;;;;;;;32.54;61.17;100652.59;5077083;27;66223;-38
2023/01/23 11:16:43;;;;;;;;;;;;;;;32.53;61.36;100650.09;5074858;27;69948;-37
2023/01/23 11:19:20;;;;;;;;;;;;;;;32.55;61.22;100654.25;5080706;27;65263;-39
2023/01/23 11:21:55;;;;;;;;;;;;;;;32.46;61.05;100651.06;5075558;27;70150;-39
2023/01/23 11:24:37;;;;;;;;;;;;;;;32.43;60.65;100646.06;5076092;28;66520;-39
2023/01/23 11:27:12;;;;;;;;;;;;;;;32.39;60.17;100647.59;5070977;27;70422;-40
2023/01/23 11:29:55;;;;;;;;;;;;;;;32.38;59.60;100653.28;5060450;28;66075;-39
2023/01/23 11:32:28;;;;;;;;;;;;;;;32.34;59.39;100660.22;5068609;27;70095;-40
2023/01/23 11:35:17;;;;;;;;;;;;;;;32.34;59.26;100658.31;5083964;27;66195;-42
2023/01/23 11:37:48;;;;;;;;;;;;;;;32.31;59.05;100672.38;5083913;27;70553;-40
2023/01/23 11:40:19;;;;;;;;;;;;;;;32.27;59.07;100680.16;5079003;27;65361;-39
2023/01/23 11:42:51;;;;;;;;;;;;;;;32.26;58.98;100680.38;5081551;27;69175;-39
2023/01/23 11:45:30;;;;;;;;;;;;;;;32.25;58.73;100678.75;5063519;27;65549;-39
2023/01/23 11:48:03;;;;;;;;;;;;;;;32.20;58.41;100684.03;5076431;27;69836;-43
2023/01/23 11:50:56;;;;;;;;;;;;;;;32.19;58.69;100688.66;5081381;27;66892;-39
2023/01/23 11:53:45;;;;;;;;;;;;;;;32.15;58.75;100682.06;5046244;27;70249;-40
2023/01/23 11:56:34;;;;;;;;;;;;;;;32.12;58.62;100687.91;5077139;27;65661;-39
2023/01/23 11:59:14;;;;;;;;;;;;;;;32.11;58.65;100690.88;5077777;27;70444;-40
2023/01/23 12:01:45;;;;;;;;;;;;;;;32.08;58.57;100694.06;5063337;28;65337;-39
2023/01/23 12:04:39;;;;;;;;;;;;;;;32.07;58.59;100695.09;5067367;27;69647;-40
2023/01/23 12:07:39;;;;;;;;;;;;;;;32.05;58.54;100715.16;5077993;27;65743;-43
2023/01/23 12:10:42;;;;;;;;;;;;;;;32.01;58.84;100711.28;4981567;28;69631;-40
2023/01/23 12:13:27;;;;;;;;;;;;;;;32.01;58.62;100715.84;5046144;27;65875;-40
2023/01/23 12:16:10;;;;;;;;;;;;;;;31.96;58.50;100716.56;5044549;28;70107;-39
2023/01/23 12:18:44;;;;;;;;;;;;;;;31.96;58.48;100719.28;5048311;28;65279;-38
2023/01/23 12:21:18;;;;;;;;;;;;;;;31.95;58.72;100722.22;5059919;27;70278;-39
2023/01/23 12:24:08;;;;;;;;;;;;;;;31.92;58.68;100720.78;5060206;27;64713;-39
2023/01/23 12:26:47;;;;;;;;;;;;;;;31.90;58.82;100728.31;5058349;27;70055;-39
2023/01/23 12:29:21;;;;;;;;;;;;;;;31.90;58.29;100731.03;5076700;27;65914;-40
2023/01/23 12:32:01;;;;;;;;;;;;;;;31.90;58.53;100727.47;5074792;27;70363;-39
2023/01/23 12:34:47;;;;;;;;;;;;;;;31.90;58.54;100733.75;5077561;27;66694;-38
2023/01/23 12:37:20;;;;;;;;;;;;;;;31.91;58.70;100742.72;5076123;27;69764;-39
2023/01/23 12:40:14;;;;;;;;;;;;;;;31.91;58.22;100743.56;5076514;27;66059;-38
2023/01/23 12:42:44;;;;;;;;;;;;;;;31.90;58.11;100747.31;5072170;27;68708;-40
2023/01/23 12:45:19;;;;;;;;;;;;;;;31.91;58.30;100754.41;5076798;27;65520;-39
2023/01/23 12:47:56;;;;;;;;;;;;;;;31.91;57.96;100754.41;5090181;27;70515;-39
2023/01/23 12:50:34;;;;;;;;;;;;;;;31.95;57.77;100752.88;5080974;27;67141;-39
2023/01/23 12:53:12;;;;;;;;;;;;;;;31.90;57.88;100750.03;5092824;27;71030;-39
2023/01/23 12:56:15;;;;;;;;;;;;;;;31.90;57.70;100751.88;5082774;27;66215;-39
2023/01/23 12:59:08;;;;;;;;;;;;;;;31.88;57.70;100757.56;5043536;27;71457;-39
2023/01/23 13:01:49;;;;;;;;;;;;;;;31.87;57.52;100761.31;5083262;27;66446;-39
2023/01/23 13:04:20;;;;;;;;;;;;;;;31.93;57.63;100768.59;5061124;27;70273;-38
2023/01/23 13:07:22;;;;;;;;;;;;;;;32.06;57.00;100764.84;5069395;28;65903;-39
2023/01/23 13:10:06;;;;;;;;;;;;;;;32.17;56.92;100768.66;5068666;28;70116;-39
2023/01/23 13:12:37;;;;;;;;;;;;;;;32.22;56.71;100763.34;5061765;27;67010;-38
2023/01/23 13:15:16;;;;;;;;;;;;;;;32.25;56.27;100765.59;5085175;27;69917;-40